createdAt,value
2023-11-30T00:00:38.464Z,-1.10
2023-11-30T00:03:06.307Z,1.96
2023-11-30T00:05:34.292Z,3.06
2023-11-30T00:08:02.130Z,3.31
2023-11-30T00:10:29.938Z,4.14
2023-11-30T00:12:57.782Z,4.15
2023-11-30T00:15:27.292Z,4.15
2023-11-30T00:17:55.389Z,3.69
2023-11-30T00:20:23.202Z,3.16
2023-11-30T00:22:50.916Z,1.61
2023-11-30T00:25:18.652Z,3.74
2023-11-30T00:27:46.487Z,4.30
2023-11-30T00:30:14.712Z,4.30
2023-11-30T00:32:47.119Z,1.86
2023-11-30T00:35:15.199Z,4.41
2023-11-30T00:37:43.000Z,4.38
2023-11-30T00:40:12.067Z,3.10
2023-11-30T00:42:43.011Z,4.37
2023-11-30T00:45:12.152Z,3.26
2023-11-30T00:47:40.217Z,3.24
2023-11-30T00:50:09.913Z,4.50
2023-11-30T00:52:37.651Z,4.60
2023-11-30T00:55:05.958Z,4.55
2023-11-30T00:57:33.891Z,4.47
2023-11-30T01:00:01.951Z,3.57
2023-11-30T01:02:30.005Z,4.49
2023-11-30T01:04:58.381Z,4.54
2023-11-30T01:07:27.675Z,1.61
2023-11-30T01:09:55.712Z,4.50
2023-11-30T01:12:25.052Z,4.07
2023-11-30T01:14:53.195Z,3.42
2023-11-30T01:17:21.075Z,4.56
2023-11-30T01:19:49.083Z,3.14
2023-11-30T01:22:17.065Z,4.53
2023-11-30T01:24:46.293Z,1.53
2023-11-30T01:27:14.166Z,3.34
2023-11-30T01:29:42.000Z,3.20
2023-11-30T01:32:09.704Z,4.77
2023-11-30T01:34:37.436Z,4.90
2023-11-30T01:37:05.188Z,4.79
2023-11-30T01:39:32.898Z,2.95
2023-11-30T01:42:04.841Z,3.68
2023-11-30T01:44:34.738Z,4.78
2023-11-30T01:47:03.087Z,3.05
2023-11-30T01:49:31.112Z,3.49
2023-11-30T01:51:59.376Z,4.25
2023-11-30T01:54:27.474Z,4.65
2023-11-30T01:56:55.646Z,0.76
2023-11-30T01:59:24.820Z,4.17
2023-11-30T02:01:53.060Z,4.67
2023-11-30T02:04:21.147Z,4.71
2023-11-30T02:06:49.316Z,4.20
2023-11-30T02:09:17.715Z,4.04
2023-11-30T02:11:45.572Z,3.92
2023-11-30T02:14:13.464Z,4.86
2023-11-30T02:16:42.583Z,4.45
2023-11-30T02:19:10.341Z,3.61
2023-11-30T02:21:38.486Z,3.82
2023-11-30T02:24:09.877Z,4.77
2023-11-30T02:26:37.642Z,4.79
2023-11-30T02:29:05.586Z,4.64
2023-11-30T02:31:33.540Z,4.15
2023-11-30T02:34:01.505Z,4.60
2023-11-30T02:36:30.771Z,3.94
2023-11-30T02:38:58.597Z,3.69
2023-11-30T02:41:29.933Z,4.80
2023-11-30T02:43:57.849Z,4.48
2023-11-30T02:46:25.918Z,4.90
2023-11-30T02:48:53.847Z,3.93
2023-11-30T02:51:21.723Z,4.89
2023-11-30T02:53:49.534Z,4.78
2023-11-30T02:56:17.543Z,3.04
2023-11-30T02:58:46.650Z,4.87
2023-11-30T03:01:14.495Z,4.85
2023-11-30T03:03:42.680Z,3.88
2023-11-30T03:06:14.113Z,3.75
2023-11-30T03:08:42.040Z,1.77
2023-11-30T03:11:09.893Z,0.68
2023-11-30T03:13:37.836Z,4.75
2023-11-30T03:16:07.469Z,4.76
2023-11-30T03:18:35.261Z,4.93
2023-11-30T03:21:03.138Z,4.88
2023-11-30T03:23:30.850Z,2.19
2023-11-30T03:25:58.644Z,4.78
2023-11-30T03:28:28.997Z,4.27
2023-11-30T03:30:56.902Z,4.60
2023-11-30T03:33:26.023Z,3.93
2023-11-30T03:35:53.925Z,1.78
2023-11-30T03:38:21.914Z,4.14
2023-11-30T03:40:50.283Z,4.87
2023-11-30T03:43:18.527Z,4.89
2023-11-30T03:45:46.434Z,4.28
2023-11-30T03:48:14.271Z,3.98
2023-11-30T03:50:43.397Z,4.84
2023-11-30T03:53:11.098Z,4.76
2023-11-30T03:55:38.875Z,4.85
2023-11-30T03:58:06.582Z,4.80
2023-11-30T04:00:34.425Z,2.43
2023-11-30T04:03:02.416Z,4.04
2023-11-30T04:05:31.350Z,4.88
2023-11-30T04:08:01.599Z,4.92
2023-11-30T04:10:29.570Z,4.95
2023-11-30T04:12:57.319Z,4.88
2023-11-30T04:15:25.113Z,4.28
2023-11-30T04:17:54.169Z,4.57
2023-11-30T04:20:21.987Z,4.81
2023-11-30T04:22:49.676Z,4.37
2023-11-30T04:25:19.474Z,1.82
2023-11-30T04:27:47.212Z,1.69
2023-11-30T04:30:15.420Z,4.68
2023-11-30T04:32:43.379Z,4.82
2023-11-30T04:35:11.236Z,2.07
2023-11-30T04:37:39.326Z,3.44
2023-11-30T04:40:08.494Z,4.69
2023-11-30T04:42:37.668Z,4.70
2023-11-30T04:45:06.438Z,4.81
2023-11-30T04:47:34.615Z,2.05
2023-11-30T04:50:03.189Z,4.82
2023-11-30T04:52:30.967Z,4.80
2023-11-30T04:54:58.802Z,2.76
2023-11-30T04:57:26.666Z,4.37
2023-11-30T04:59:55.991Z,2.26
2023-11-30T05:02:24.044Z,4.90
2023-11-30T05:04:52.048Z,3.47
2023-11-30T05:07:20.070Z,2.74
2023-11-30T05:09:48.129Z,1.64
2023-11-30T05:12:15.923Z,4.85
2023-11-30T05:14:43.777Z,4.81
2023-11-30T05:17:12.868Z,4.27
2023-11-30T05:19:40.611Z,4.72
2023-11-30T05:22:09.382Z,4.14
2023-11-30T05:24:37.992Z,4.48
2023-11-30T05:27:05.909Z,4.46
2023-11-30T05:29:33.708Z,3.92
2023-11-30T05:32:01.392Z,4.79
2023-11-30T05:34:30.517Z,3.90
2023-11-30T05:36:58.184Z,2.95
2023-11-30T05:39:25.989Z,4.92
2023-11-30T05:41:54.297Z,4.74
2023-11-30T05:44:22.079Z,4.64
2023-11-30T05:46:51.487Z,4.16
2023-11-30T05:49:19.333Z,4.00
2023-11-30T05:51:48.704Z,4.47
2023-11-30T05:54:16.664Z,4.35
2023-11-30T05:56:44.556Z,4.70
2023-11-30T05:59:13.284Z,4.66
2023-11-30T06:01:41.130Z,4.32
2023-11-30T06:04:09.234Z,3.24
2023-11-30T06:06:37.087Z,2.80
2023-11-30T06:09:07.993Z,4.31
2023-11-30T06:11:36.383Z,1.49
2023-11-30T06:14:04.290Z,4.65
2023-11-30T06:16:31.947Z,3.04
2023-11-30T06:18:59.743Z,4.22
2023-11-30T06:21:27.451Z,4.75
2023-11-30T06:23:55.229Z,3.77
2023-11-30T06:26:24.898Z,4.78
2023-11-30T06:28:52.797Z,3.53
2023-11-30T06:31:20.674Z,4.75
2023-11-30T06:33:48.626Z,4.77
2023-11-30T06:36:16.441Z,4.70
2023-11-30T06:38:45.025Z,3.59
2023-11-30T06:41:13.005Z,4.63
2023-11-30T06:43:42.592Z,4.61
2023-11-30T06:46:10.350Z,3.03
2023-11-30T06:48:38.053Z,4.63
2023-11-30T06:51:08.357Z,4.78
2023-11-30T06:53:36.381Z,3.39
2023-11-30T06:56:04.325Z,3.89
2023-11-30T06:58:32.117Z,4.66
2023-11-30T07:01:01.815Z,4.68
2023-11-30T07:03:32.095Z,4.69
2023-11-30T07:06:07.485Z,4.66
2023-11-30T07:08:37.382Z,2.84
2023-11-30T07:11:09.706Z,4.65
2023-11-30T07:13:37.530Z,4.71
2023-11-30T07:16:07.915Z,4.81
2023-11-30T07:18:35.875Z,4.68
2023-11-30T07:21:05.153Z,2.24
2023-11-30T07:23:33.064Z,1.76
2023-11-30T07:26:00.797Z,4.12
2023-11-30T07:28:28.587Z,1.58
2023-11-30T07:30:56.420Z,4.34
2023-11-30T07:33:25.598Z,4.70
2023-11-30T07:35:53.281Z,4.10
2023-11-30T07:38:21.078Z,4.83
2023-11-30T07:40:49.356Z,4.63
2023-11-30T07:43:17.526Z,4.77
2023-11-30T07:45:45.362Z,2.54
2023-11-30T07:48:13.272Z,4.89
2023-11-30T07:50:42.568Z,3.79
2023-11-30T07:53:10.856Z,3.78
2023-11-30T07:55:38.789Z,1.02
2023-11-30T07:58:06.900Z,4.27
2023-11-30T08:00:34.774Z,4.54
2023-11-30T08:03:02.895Z,4.84
2023-11-30T08:05:30.777Z,4.87
2023-11-30T08:07:59.943Z,3.26
2023-11-30T08:10:27.918Z,5.08
2023-11-30T08:12:55.668Z,4.53
2023-11-30T08:15:24.409Z,2.32
2023-11-30T08:17:52.550Z,5.07
2023-11-30T08:20:20.586Z,4.56
2023-11-30T08:22:48.749Z,4.82
2023-11-30T08:25:18.624Z,5.29
2023-11-30T08:27:50.962Z,4.86
2023-11-30T08:30:20.881Z,4.35
2023-11-30T08:32:48.644Z,3.36
2023-11-30T08:35:16.530Z,4.91
2023-11-30T08:37:44.951Z,4.88
2023-11-30T08:40:13.218Z,4.14
2023-11-30T08:42:42.525Z,3.97
2023-11-30T08:45:11.243Z,5.43
2023-11-30T08:47:39.053Z,5.57
2023-11-30T08:50:07.300Z,5.03
2023-11-30T08:52:35.282Z,5.32
2023-11-30T08:55:03.495Z,5.30
2023-11-30T08:57:31.252Z,4.24
2023-11-30T09:00:00.550Z,4.36
2023-11-30T09:02:28.663Z,5.67
2023-11-30T09:04:56.411Z,5.01
2023-11-30T09:07:24.339Z,5.64
2023-11-30T09:09:52.179Z,5.64
2023-11-30T09:12:20.123Z,5.61
2023-11-30T09:14:47.989Z,5.13
2023-11-30T09:17:17.573Z,5.21
2023-11-30T09:19:45.430Z,5.69
2023-11-30T09:22:13.221Z,5.16
2023-11-30T09:24:41.105Z,5.69
2023-11-30T09:27:09.692Z,3.85
2023-11-30T09:29:37.688Z,3.61
2023-11-30T09:32:06.698Z,5.29
2023-11-30T09:34:35.764Z,5.72
2023-11-30T09:37:03.614Z,5.63
2023-11-30T09:39:31.509Z,3.91
2023-11-30T09:42:01.195Z,5.69
2023-11-30T09:44:29.572Z,2.82
2023-11-30T09:46:57.430Z,4.27
2023-11-30T09:49:25.295Z,6.00
2023-11-30T09:51:54.750Z,6.09
2023-11-30T09:54:24.209Z,5.53
2023-11-30T09:56:52.271Z,5.98
2023-11-30T09:59:20.444Z,2.94
2023-11-30T10:01:58.762Z,6.16
2023-11-30T10:04:28.902Z,6.34
2023-11-30T10:06:58.943Z,5.42
2023-11-30T10:09:26.778Z,4.27
2023-11-30T10:11:55.536Z,7.00
2023-11-30T10:14:23.953Z,7.87
2023-11-30T10:16:51.881Z,9.73
2023-11-30T10:19:19.802Z,10.30
2023-11-30T10:21:48.826Z,8.99
2023-11-30T10:24:23.985Z,10.30
2023-11-30T10:26:53.566Z,10.69
2023-11-30T10:29:22.914Z,10.07
2023-11-30T10:31:52.433Z,10.58
2023-11-30T10:34:25.632Z,10.33
2023-11-30T10:36:53.519Z,9.85
2023-11-30T10:39:24.761Z,8.22
2023-11-30T10:41:53.766Z,8.21
2023-11-30T10:44:27.968Z,8.07
2023-11-30T10:46:57.400Z,9.33
2023-11-30T10:49:25.278Z,7.91
2023-11-30T10:51:53.909Z,9.99
2023-11-30T10:54:42.822Z,10.00
2023-11-30T10:57:10.989Z,9.62
2023-11-30T10:59:44.324Z,9.56
2023-11-30T11:02:15.676Z,10.74
2023-11-30T11:04:44.811Z,9.49
2023-11-30T11:07:14.757Z,10.11
2023-11-30T11:09:47.701Z,10.83
2023-11-30T11:12:49.356Z,10.82
2023-11-30T11:15:23.215Z,10.49
2023-11-30T11:17:52.982Z,9.67
2023-11-30T11:20:26.125Z,10.55
2023-11-30T11:22:57.097Z,10.97
2023-11-30T11:25:28.580Z,11.28
2023-11-30T11:27:56.887Z,10.31
2023-11-30T11:30:27.918Z,8.57
2023-11-30T11:32:58.452Z,10.98
2023-11-30T11:35:27.617Z,10.81
2023-11-30T11:37:57.513Z,10.67
2023-11-30T11:40:27.027Z,10.12
2023-11-30T11:42:55.526Z,10.41
2023-11-30T11:45:23.373Z,10.45
2023-11-30T11:47:51.081Z,11.01
2023-11-30T11:50:19.463Z,10.87
2023-11-30T11:52:47.113Z,11.13
2023-11-30T11:55:15.312Z,12.29
2023-11-30T11:57:45.479Z,13.17
2023-11-30T12:00:16.743Z,14.60
2023-11-30T12:02:45.034Z,15.52
2023-11-30T12:05:14.654Z,15.47
2023-11-30T12:07:50.156Z,17.15
2023-11-30T12:10:28.750Z,17.88
2023-11-30T12:12:59.060Z,17.42
2023-11-30T12:15:26.762Z,18.51
2023-11-30T12:17:54.852Z,18.97
2023-11-30T12:20:22.866Z,17.42
2023-11-30T12:22:51.879Z,15.68
2023-11-30T12:25:19.480Z,14.74
2023-11-30T12:27:47.198Z,15.48
2023-11-30T12:30:16.482Z,16.73
2023-11-30T12:32:44.464Z,15.57
2023-11-30T12:35:13.388Z,16.97
2023-11-30T12:37:41.362Z,17.32
2023-11-30T12:40:11.658Z,17.95
2023-11-30T12:42:39.448Z,17.87
2023-11-30T12:45:08.398Z,17.57
2023-11-30T12:47:41.211Z,15.79
2023-11-30T12:50:10.461Z,14.83
2023-11-30T12:52:38.239Z,13.71
2023-11-30T12:55:06.981Z,13.02
2023-11-30T12:57:35.898Z,12.31
2023-11-30T13:00:10.640Z,11.74
2023-11-30T13:02:41.517Z,11.64
2023-11-30T13:05:09.204Z,11.29
2023-11-30T13:07:37.843Z,11.01
2023-11-30T13:10:06.049Z,10.59
2023-11-30T13:12:34.313Z,10.58
2023-11-30T13:15:01.913Z,10.61
2023-11-30T13:17:29.622Z,10.33
2023-11-30T13:19:58.616Z,10.25
2023-11-30T13:22:26.212Z,10.17
2023-11-30T13:24:53.816Z,10.11
2023-11-30T13:27:22.460Z,9.98
2023-11-30T13:29:50.109Z,9.81
2023-11-30T13:32:17.719Z,9.81
2023-11-30T13:34:45.436Z,9.72
2023-11-30T13:37:16.161Z,9.58
2023-11-30T13:39:43.815Z,9.52
2023-11-30T13:42:11.691Z,9.30
2023-11-30T13:44:40.108Z,9.45
2023-11-30T13:47:09.124Z,9.29
2023-11-30T13:49:36.815Z,9.43
2023-11-30T13:52:04.719Z,9.32
2023-11-30T13:54:33.653Z,9.21
2023-11-30T13:57:01.732Z,9.15
2023-11-30T13:59:29.446Z,9.27
2023-11-30T14:01:57.119Z,9.41
2023-11-30T14:04:24.720Z,9.47
2023-11-30T14:06:57.660Z,9.27
2023-11-30T14:09:27.952Z,9.12
2023-11-30T14:11:57.553Z,9.00
2023-11-30T14:14:25.394Z,8.90
2023-11-30T14:16:53.019Z,8.95
2023-11-30T14:19:20.682Z,8.89
2023-11-30T14:21:48.333Z,8.73
2023-11-30T14:24:16.697Z,8.98
2023-11-30T14:26:44.335Z,8.80
2023-11-30T14:29:13.277Z,8.57
2023-11-30T14:31:40.891Z,8.69
2023-11-30T14:34:08.528Z,8.78
2023-11-30T14:36:36.253Z,8.41
2023-11-30T14:39:04.940Z,8.40
2023-11-30T14:41:32.611Z,8.27
2023-11-30T14:44:00.297Z,8.22
2023-11-30T14:46:29.341Z,8.04
2023-11-30T14:48:57.097Z,6.87
2023-11-30T14:51:24.810Z,7.76
2023-11-30T14:53:52.492Z,7.88
2023-11-30T14:56:21.380Z,7.84
2023-11-30T14:58:48.981Z,7.81
2023-11-30T15:01:16.761Z,7.86
2023-11-30T15:03:46.880Z,7.73
2023-11-30T15:06:14.743Z,7.63
2023-11-30T15:08:42.364Z,7.40
2023-11-30T15:11:10.217Z,7.42
2023-11-30T15:13:37.828Z,7.33
2023-11-30T15:16:06.183Z,7.37
2023-11-30T15:18:33.948Z,7.19
2023-11-30T15:21:03.240Z,7.25
2023-11-30T15:23:31.215Z,7.24
2023-11-30T15:25:58.797Z,7.23
2023-11-30T15:28:26.377Z,7.00
2023-11-30T15:30:54.258Z,7.17
2023-11-30T15:33:21.990Z,7.00
2023-11-30T15:35:49.554Z,6.77
2023-11-30T15:38:19.466Z,6.86
2023-11-30T15:40:47.340Z,6.75
2023-11-30T15:43:14.955Z,6.82
2023-11-30T15:45:42.818Z,6.70
2023-11-30T15:48:10.912Z,6.94
2023-11-30T15:50:38.663Z,6.82
2023-11-30T15:53:06.685Z,6.72
2023-11-30T15:55:35.677Z,6.73
2023-11-30T15:58:05.197Z,6.80
2023-11-30T16:00:32.935Z,6.81
2023-11-30T16:03:01.478Z,6.62
2023-11-30T16:05:30.054Z,6.66
2023-11-30T16:07:57.869Z,6.57
2023-11-30T16:10:26.772Z,6.42
2023-11-30T16:12:55.867Z,6.29
2023-11-30T16:15:25.671Z,6.29
2023-11-30T16:17:53.635Z,6.12
2023-11-30T16:20:21.374Z,6.28
2023-11-30T16:22:49.412Z,6.17
2023-11-30T16:25:17.208Z,6.39
2023-11-30T16:27:44.964Z,6.61
2023-11-30T16:30:14.740Z,6.45
2023-11-30T16:32:42.454Z,6.26
2023-11-30T16:35:10.714Z,5.54
2023-11-30T16:37:38.830Z,6.33
2023-11-30T16:40:08.392Z,6.29
2023-11-30T16:42:36.791Z,6.37
2023-11-30T16:45:05.254Z,6.32
2023-11-30T16:47:34.633Z,6.22
2023-11-30T16:50:04.280Z,6.38
2023-11-30T16:52:32.146Z,6.30
2023-11-30T16:54:59.816Z,6.25
2023-11-30T16:57:32.925Z,6.06
2023-11-30T17:00:00.546Z,6.16
2023-11-30T17:02:29.032Z,6.17
2023-11-30T17:04:58.118Z,6.20
2023-11-30T17:07:25.971Z,5.97
2023-11-30T17:09:53.693Z,5.94
2023-11-30T17:12:22.759Z,6.02
2023-11-30T17:14:50.997Z,5.81
2023-11-30T17:17:18.980Z,5.83
2023-11-30T17:19:46.968Z,5.70
2023-11-30T17:22:16.419Z,5.79
2023-11-30T17:24:44.491Z,5.80
2023-11-30T17:27:13.894Z,5.71
2023-11-30T17:29:42.819Z,5.43
2023-11-30T17:32:11.496Z,5.57
2023-11-30T17:34:39.518Z,5.78
2023-11-30T17:37:09.565Z,5.78
2023-11-30T17:39:38.958Z,5.63
2023-11-30T17:42:07.236Z,5.43
2023-11-30T17:44:35.086Z,5.20
2023-11-30T17:47:02.812Z,5.06
2023-11-30T17:49:30.862Z,4.98
2023-11-30T17:51:58.720Z,5.01
2023-11-30T17:54:26.404Z,5.11
2023-11-30T17:56:55.437Z,5.11
2023-11-30T17:59:23.053Z,5.26
2023-11-30T18:01:50.666Z,5.05
2023-11-30T18:04:18.361Z,5.19
2023-11-30T18:06:46.001Z,5.36
2023-11-30T18:09:13.688Z,5.17
2023-11-30T18:11:41.640Z,5.13
2023-11-30T18:14:11.805Z,4.78
2023-11-30T18:16:39.458Z,5.08
2023-11-30T18:19:07.085Z,5.26
2023-11-30T18:21:35.053Z,5.11
2023-11-30T18:24:02.935Z,4.96
2023-11-30T18:26:30.648Z,5.04
2023-11-30T18:28:58.350Z,5.03
2023-11-30T18:31:27.684Z,4.90
2023-11-30T18:33:55.454Z,4.81
2023-11-30T18:36:23.220Z,4.98
2023-11-30T18:38:52.105Z,4.94
2023-11-30T18:41:20.333Z,4.93
2023-11-30T18:43:47.977Z,4.92
2023-11-30T18:46:16.289Z,4.64
2023-11-30T18:48:46.451Z,4.98
2023-11-30T18:51:14.137Z,4.98
2023-11-30T18:53:41.988Z,5.10
2023-11-30T18:56:10.406Z,5.10
2023-11-30T18:58:39.544Z,5.11
2023-11-30T19:01:07.472Z,5.11
2023-11-30T19:03:35.999Z,5.13
2023-11-30T19:06:05.626Z,5.04
2023-11-30T19:08:33.461Z,5.22
2023-11-30T19:11:01.263Z,5.17
2023-11-30T19:13:29.222Z,5.10
2023-11-30T19:15:56.909Z,5.14
2023-11-30T19:18:24.738Z,5.16
2023-11-30T19:20:52.463Z,5.11
2023-11-30T19:23:21.439Z,5.22
2023-11-30T19:25:49.061Z,5.12
2023-11-30T19:28:16.632Z,5.14
2023-11-30T19:30:44.301Z,5.19
2023-11-30T19:33:12.442Z,5.10
2023-11-30T19:35:40.199Z,5.11
2023-11-30T19:38:07.918Z,4.64
2023-11-30T19:40:36.828Z,5.02
2023-11-30T19:43:04.603Z,4.28
2023-11-30T19:45:32.230Z,5.02
2023-11-30T19:48:00.022Z,5.16
2023-11-30T19:50:28.676Z,5.14
2023-11-30T19:52:56.271Z,5.26
2023-11-30T19:55:24.175Z,5.17
2023-11-30T19:57:53.087Z,5.13
2023-11-30T20:00:20.789Z,5.02
2023-11-30T20:02:48.700Z,5.12
2023-11-30T20:05:17.297Z,5.07
2023-11-30T20:07:46.267Z,5.04
2023-11-30T20:10:13.903Z,5.12
2023-11-30T20:12:42.768Z,5.09
2023-11-30T20:15:11.968Z,5.18
2023-11-30T20:17:39.890Z,5.28
2023-11-30T20:20:08.609Z,5.18
2023-11-30T20:22:36.252Z,5.16
2023-11-30T20:25:04.023Z,5.22
2023-11-30T20:27:31.761Z,5.21
2023-11-30T20:29:59.475Z,5.44
2023-11-30T20:32:28.475Z,5.29
2023-11-30T20:34:56.111Z,5.22
2023-11-30T20:37:25.895Z,5.12
2023-11-30T20:39:53.947Z,5.18
2023-11-30T20:42:21.701Z,5.33
2023-11-30T20:44:53.129Z,5.13
2023-11-30T20:47:22.357Z,5.23
2023-11-30T20:49:51.716Z,5.25
2023-11-30T20:52:19.886Z,5.37
2023-11-30T20:54:48.393Z,5.36
2023-11-30T20:57:16.882Z,5.04
2023-11-30T20:59:44.512Z,5.41
2023-11-30T21:02:13.973Z,5.47
2023-11-30T21:04:41.782Z,5.32
2023-11-30T21:07:12.090Z,5.19
2023-11-30T21:09:39.809Z,5.49
2023-11-30T21:12:08.411Z,5.57
2023-11-30T21:14:36.036Z,5.55
2023-11-30T21:17:34.876Z,5.41
2023-11-30T21:20:03.191Z,5.36
2023-11-30T21:22:32.794Z,5.34
2023-11-30T21:25:00.513Z,5.21
2023-11-30T21:27:28.211Z,5.16
2023-11-30T21:29:55.859Z,5.35
2023-11-30T21:32:23.447Z,5.29
2023-11-30T21:34:51.025Z,5.34
2023-11-30T21:37:18.745Z,5.33
2023-11-30T21:39:47.648Z,5.25
2023-11-30T21:42:15.343Z,5.18
2023-11-30T21:44:43.554Z,5.17
2023-11-30T21:47:13.088Z,5.26
2023-11-30T21:49:41.551Z,5.37
2023-11-30T21:52:09.218Z,5.13
2023-11-30T21:54:36.907Z,5.17
2023-11-30T21:57:06.177Z,5.11
2023-11-30T21:59:37.555Z,5.33
2023-11-30T22:02:05.813Z,5.33
2023-11-30T22:04:33.808Z,5.39
2023-11-30T22:07:01.794Z,5.40
2023-11-30T22:09:29.937Z,5.37
2023-11-30T22:11:58.143Z,5.42
2023-11-30T22:14:27.216Z,5.38
2023-11-30T22:16:55.316Z,5.37
2023-11-30T22:19:23.056Z,5.44
2023-11-30T22:21:50.752Z,5.39
2023-11-30T22:24:18.636Z,5.34
2023-11-30T22:26:46.262Z,5.39
2023-11-30T22:29:13.898Z,5.46
2023-11-30T22:31:42.835Z,5.54
2023-11-30T22:34:10.516Z,5.50
2023-11-30T22:36:38.260Z,5.60
2023-11-30T22:39:05.852Z,5.36
2023-11-30T22:41:33.524Z,5.42
2023-11-30T22:44:01.153Z,5.39
2023-11-30T22:46:28.900Z,5.42
2023-11-30T22:48:57.898Z,5.43
2023-11-30T22:51:25.671Z,5.51
2023-11-30T22:53:53.311Z,5.42
2023-11-30T22:56:26.271Z,5.48
2023-11-30T22:58:53.904Z,5.48
2023-11-30T23:01:22.090Z,5.30
2023-11-30T23:03:50.077Z,5.28
2023-11-30T23:06:19.212Z,5.26
2023-11-30T23:08:47.138Z,5.34
2023-11-30T23:11:14.784Z,5.20
2023-11-30T23:13:42.377Z,5.16
2023-11-30T23:16:12.389Z,5.20
2023-11-30T23:18:40.539Z,5.27
2023-11-30T23:21:08.638Z,5.25
2023-11-30T23:23:37.579Z,5.29
2023-11-30T23:26:05.700Z,5.29
2023-11-30T23:28:33.796Z,5.30
2023-11-30T23:31:01.610Z,5.36
2023-11-30T23:33:29.307Z,5.40
2023-11-30T23:35:56.990Z,5.37
2023-11-30T23:38:24.905Z,5.30
2023-11-30T23:40:53.860Z,5.23
2023-11-30T23:43:21.534Z,5.21
2023-11-30T23:45:49.164Z,5.29
2023-11-30T23:48:16.833Z,5.37
2023-11-30T23:50:44.435Z,5.37
2023-11-30T23:53:12.026Z,5.30
2023-11-30T23:55:39.614Z,5.33
2023-11-30T23:58:08.606Z,5.45
